Weert, Netherlands
Current Conditions -  °F | °C
As of 3:55 AM on Friday 28 Nov 2014 (Local Time) from EBBL Reporting Station
Scattered Clouds Scattered Clouds  
Wind Chill: 36°   Ceiling: Unl
Heat Index: 41°   Visibility: 3mi
Dew Point: 39°   Wind: 7mph
Humidity: 93%   Direction: 90°E
Pressure: 29.71"   Gusts: NA
Location:  51.25°N, 5.71°E
Report Text: EBBL 280255Z AUTO 09006KT 5000 FEW065/// SCT090/// 05/04 Q1006 WHT
Loading
Personal Weather Stations






























Interactive Weather Map New forecast layout! Learn more

10-Day Weather Forecast

Advertisements
Track Severe Weather on mobile